createdAt,value
2019-03-08T00:00:03.035Z,95.2
2019-03-08T00:01:02.963Z,96.1
2019-03-08T00:02:03.689Z,96.1
2019-03-08T00:03:03.197Z,98.2
2019-03-08T00:04:03.503Z,96.6
2019-03-08T00:05:03.739Z,97
2019-03-08T00:06:03.616Z,97
2019-03-08T00:07:03.651Z,97.5
2019-03-08T00:08:03.379Z,98
2019-03-08T00:09:03.469Z,97.5
2019-03-08T00:10:03.524Z,95.6
2019-03-08T00:11:03.254Z,95.6
2019-03-08T00:12:03.145Z,96.3
2019-03-08T00:13:06.370Z,96.3
2019-03-08T00:14:03.532Z,95.2
2019-03-08T00:15:03.259Z,95.9
2019-03-08T00:16:03.481Z,95.4
2019-03-08T00:17:03.370Z,95.4
2019-03-08T00:18:03.531Z,97.3
2019-03-08T00:19:03.088Z,96.6
2019-03-08T00:20:03.107Z,96.6
2019-03-08T00:21:03.244Z,94.9
2019-03-08T00:22:03.162Z,96.6
2019-03-08T00:23:03.203Z,96.1
2019-03-08T00:24:03.423Z,94.9
2019-03-08T00:25:03.239Z,96.3
2019-03-08T00:26:04.633Z,95.6
2019-03-08T00:27:03.447Z,95.4
2019-03-08T00:28:03.067Z,98.2
2019-03-08T00:29:03.734Z,97.7
2019-03-08T00:30:03.402Z,100.1
2019-03-08T00:31:02.913Z,99.8
2019-03-08T00:32:03.011Z,100.3
2019-03-08T00:33:03.137Z,102.2
2019-03-08T00:34:03.420Z,101
2019-03-08T00:35:03.591Z,102.4
2019-03-08T00:36:02.648Z,102.2
2019-03-08T00:37:03.104Z,104.5
2019-03-08T00:38:03.183Z,102.9
2019-03-08T00:39:02.859Z,104
2019-03-08T00:40:03.325Z,103.1
2019-03-08T00:41:03.038Z,102.6
2019-03-08T00:42:02.943Z,102.2
2019-03-08T00:43:02.996Z,102.6
2019-03-08T00:44:02.968Z,101.2
2019-03-08T00:45:03.135Z,101.2
2019-03-08T00:46:03.059Z,101
2019-03-08T00:47:03.004Z,99.4
2019-03-08T00:48:02.911Z,100.8
2019-03-08T00:49:03.088Z,100.8
2019-03-08T00:50:02.821Z,100.1
2019-03-08T00:51:03.460Z,101.7
2019-03-08T00:52:03.338Z,101.7
2019-03-08T00:53:03.121Z,101.2
2019-03-08T00:54:02.980Z,101
2019-03-08T00:55:03.877Z,99.8
2019-03-08T00:56:04.159Z,102.2
2019-03-08T00:57:02.873Z,100.1
2019-03-08T00:58:03.370Z,100.8
2019-03-08T00:59:03.934Z,100.3
2019-03-08T01:00:03.854Z,100.3
2019-03-08T01:01:03.820Z,100.8
2019-03-08T01:02:02.848Z,99.6
2019-03-08T01:03:03.124Z,100.5
2019-03-08T01:04:03.126Z,99.8
2019-03-08T01:05:03.022Z,99.8
2019-03-08T01:06:03.822Z,99.4
2019-03-08T01:07:02.882Z,99.6
2019-03-08T01:08:03.692Z,99.4
2019-03-08T01:09:03.375Z,100.5
2019-03-08T01:10:03.699Z,99.6
2019-03-08T01:11:03.109Z,100.3
2019-03-08T01:12:02.889Z,100.1
2019-03-08T01:13:03.053Z,100.8
2019-03-08T01:14:03.641Z,99.1
2019-03-08T01:15:03.582Z,101
2019-03-08T01:16:03.060Z,100.3
2019-03-08T01:17:03.498Z,98.9
2019-03-08T01:18:03.467Z,100.5
2019-03-08T01:19:03.364Z,98
2019-03-08T01:20:03.766Z,100.1
2019-03-08T01:21:03.580Z,98
2019-03-08T01:22:03.854Z,101
2019-03-08T01:23:03.719Z,100.1
2019-03-08T01:24:03.605Z,100.3
2019-03-08T01:25:03.597Z,101
2019-03-08T01:26:03.079Z,100.1
2019-03-08T01:27:02.965Z,99.8
2019-03-08T01:28:03.642Z,99.6
2019-03-08T01:29:03.363Z,98.4
2019-03-08T01:30:03.456Z,98.9
2019-03-08T01:31:03.438Z,96.1
2019-03-08T01:32:05.763Z,95.9
2019-03-08T01:33:04.136Z,97
2019-03-08T01:34:03.498Z,95.4
2019-03-08T01:35:03.053Z,94.9
2019-03-08T01:36:03.451Z,94.5
2019-03-08T01:37:03.588Z,93.3
2019-03-08T01:38:03.545Z,93.5
2019-03-08T01:39:03.500Z,93.8
2019-03-08T01:40:03.294Z,93.1
2019-03-08T01:41:03.414Z,91.4
2019-03-08T01:42:03.599Z,94.5
2019-03-08T01:43:03.232Z,94.2
2019-03-08T01:44:03.415Z,95.6
2019-03-08T01:45:04.065Z,96.3
2019-03-08T01:46:03.528Z,98.2
2019-03-08T01:47:03.148Z,98.4
2019-03-08T01:48:03.325Z,97.3
2019-03-08T01:49:04.116Z,96.8
2019-03-08T01:50:03.832Z,96.3
2019-03-08T01:51:03.146Z,96.3
2019-03-08T01:52:02.927Z,95.2
2019-03-08T01:53:02.890Z,95.9
2019-03-08T01:54:03.060Z,95.6
2019-03-08T01:55:03.242Z,94.9
2019-03-08T01:56:03.558Z,94.9
2019-03-08T01:57:03.258Z,95.2
2019-03-08T01:58:03.891Z,96.8
2019-03-08T01:59:03.598Z,96.3
2019-03-08T02:00:03.714Z,97.3
2019-03-08T02:01:03.451Z,97.3
2019-03-08T02:02:02.441Z,97
2019-03-08T02:03:03.884Z,94.5
2019-03-08T02:04:02.855Z,96.3
2019-03-08T02:05:04.270Z,96.1
2019-03-08T02:06:03.742Z,97.7
2019-03-08T02:07:03.345Z,97.7
2019-03-08T02:08:03.391Z,97.5
2019-03-08T02:09:03.657Z,97.7
2019-03-08T02:10:03.101Z,98.9
2019-03-08T02:11:03.468Z,97.5
2019-03-08T02:12:03.236Z,98.2
2019-03-08T02:13:04.425Z,97.7
2019-03-08T02:14:03.283Z,95.6
2019-03-08T02:15:03.229Z,98
2019-03-08T02:16:03.008Z,96.3
2019-03-08T02:17:03.670Z,96.3
2019-03-08T02:18:03.863Z,97.7
2019-03-08T02:19:02.960Z,97.7
2019-03-08T02:20:02.998Z,98.4
2019-03-08T02:21:08.446Z,96.8
2019-03-08T02:22:03.091Z,98.2
2019-03-08T02:23:03.103Z,98.2
2019-03-08T02:24:02.899Z,98.4
2019-03-08T02:25:02.868Z,98.7
2019-03-08T02:26:03.006Z,98.2
2019-03-08T02:27:03.854Z,97.7
2019-03-08T02:28:02.994Z,98.7
2019-03-08T02:29:04.004Z,101.9
2019-03-08T02:30:02.875Z,101
2019-03-08T02:31:03.489Z,100.3
2019-03-08T02:32:02.924Z,100.5
2019-03-08T02:33:03.790Z,100.1
2019-03-08T02:34:03.085Z,101.5
2019-03-08T02:35:03.167Z,101.7
2019-03-08T02:36:03.227Z,100.5
2019-03-08T02:37:04.623Z,100.3
2019-03-08T02:38:03.679Z,102.2
2019-03-08T02:39:03.286Z,100.5
2019-03-08T02:40:03.750Z,102.2
2019-03-08T02:41:02.939Z,99.4
2019-03-08T02:42:03.432Z,100.5
2019-03-08T02:43:03.641Z,100.5
2019-03-08T02:44:03.626Z,96.8
2019-03-08T02:45:04.426Z,97
2019-03-08T02:46:03.342Z,95.4
2019-03-08T02:47:02.900Z,95.4
2019-03-08T02:48:03.274Z,94.7
2019-03-08T02:49:03.526Z,95.6
2019-03-08T02:50:03.506Z,96.6
2019-03-08T02:51:03.381Z,96.3
2019-03-08T02:52:03.656Z,96.1
2019-03-08T02:53:04.329Z,97.3
2019-03-08T02:54:03.431Z,97.3
2019-03-08T02:55:03.576Z,97
2019-03-08T02:56:03.125Z,97
2019-03-08T02:57:03.326Z,96.6
2019-03-08T02:58:03.206Z,94.5
2019-03-08T02:59:03.215Z,93.1
2019-03-08T03:00:03.233Z,92.4
2019-03-08T03:01:03.764Z,93.5
2019-03-08T03:02:03.068Z,93.1
2019-03-08T03:03:03.297Z,94.2
2019-03-08T03:04:02.928Z,93.1
2019-03-08T03:05:02.961Z,94.5
2019-03-08T03:06:02.901Z,93.1
2019-03-08T03:07:03.001Z,94.5
2019-03-08T03:08:02.717Z,91.7
2019-03-08T03:09:03.613Z,93.1
2019-03-08T03:10:03.610Z,92.8
2019-03-08T03:11:03.633Z,92.6
2019-03-08T03:12:03.643Z,93.5
2019-03-08T03:13:03.605Z,93.8
2019-03-08T03:14:03.734Z,94.7
2019-03-08T03:15:03.607Z,94.7
2019-03-08T03:16:03.583Z,93.1
2019-03-08T03:17:03.907Z,92.4
2019-03-08T03:18:03.677Z,92.4
2019-03-08T03:19:03.311Z,92.1
2019-03-08T03:20:03.640Z,92.6
2019-03-08T03:21:03.045Z,91.7
2019-03-08T03:22:03.169Z,92.4
2019-03-08T03:23:03.295Z,92.1
2019-03-08T03:24:03.101Z,92.1
2019-03-08T03:25:04.188Z,93.1
2019-03-08T03:26:02.930Z,91.9
2019-03-08T03:27:03.109Z,93.8
2019-03-08T03:28:02.935Z,93.8
2019-03-08T03:29:03.250Z,93.5
2019-03-08T03:30:03.271Z,92.6
2019-03-08T03:31:03.327Z,92.4
2019-03-08T03:32:02.989Z,92.4
2019-03-08T03:33:03.825Z,93.8
2019-03-08T03:34:03.100Z,94.5
2019-03-08T03:35:03.705Z,93.3
2019-03-08T03:36:02.933Z,94
2019-03-08T03:37:03.909Z,92.8
2019-03-08T03:38:03.723Z,94.7
2019-03-08T03:39:03.815Z,94
2019-03-08T03:40:03.024Z,93.5
2019-03-08T03:41:04.009Z,94.5
2019-03-08T03:42:03.074Z,94
2019-03-08T03:43:02.761Z,96.1
2019-03-08T03:44:03.614Z,94.7
2019-03-08T03:45:03.865Z,94.2
2019-03-08T03:46:03.711Z,94.9
2019-03-08T03:47:03.781Z,93.1
2019-03-08T03:48:03.575Z,94.7
2019-03-08T03:49:04.350Z,94
2019-03-08T03:50:03.687Z,95.2
2019-03-08T03:51:03.468Z,95.2
2019-03-08T03:52:03.313Z,94.2
2019-03-08T03:53:03.219Z,95.9
2019-03-08T03:54:03.419Z,95.2
2019-03-08T03:55:03.302Z,94.5
2019-03-08T03:56:03.386Z,94.5
2019-03-08T03:57:03.839Z,96.6
2019-03-08T03:58:02.925Z,95.9
2019-03-08T03:59:02.967Z,98.2
2019-03-08T04:00:03.423Z,96.8
2019-03-08T04:01:03.047Z,97.7
2019-03-08T04:02:02.919Z,96.6
2019-03-08T04:03:03.308Z,97.7
2019-03-08T04:04:03.376Z,96.3
2019-03-08T04:05:04.076Z,95.6
2019-03-08T04:06:03.243Z,95.9
2019-03-08T04:07:02.951Z,98.2
2019-03-08T04:08:03.055Z,96.8
2019-03-08T04:09:03.029Z,97.5
2019-03-08T04:10:03.059Z,98.2
2019-03-08T04:11:03.008Z,97.7
2019-03-08T04:12:03.310Z,97
2019-03-08T04:13:03.586Z,96.3
2019-03-08T04:14:02.953Z,96.6
2019-03-08T04:15:03.068Z,98.2
2019-03-08T04:16:03.827Z,97.3
2019-03-08T04:17:02.699Z,98.9
2019-03-08T04:18:03.771Z,99.1
2019-03-08T04:19:03.816Z,98.2
2019-03-08T04:20:03.734Z,98.2
2019-03-08T04:21:04.146Z,99.1
2019-03-08T04:22:03.744Z,98.4
2019-03-08T04:23:03.579Z,100.5
2019-03-08T04:24:03.823Z,99.4
2019-03-08T04:25:03.764Z,99.1
2019-03-08T04:26:03.625Z,99.4
2019-03-08T04:27:03.481Z,99.6
2019-03-08T04:28:03.383Z,101
2019-03-08T04:29:04.206Z,101.2
2019-03-08T04:30:03.421Z,101.5
2019-03-08T04:31:03.386Z,101.2
2019-03-08T04:32:03.381Z,100.8
2019-03-08T04:33:03.327Z,100.5
2019-03-08T04:34:04.322Z,100.8
2019-03-08T04:35:03.423Z,100.5
2019-03-08T04:36:03.216Z,100.1
2019-03-08T04:37:03.995Z,99.6
2019-03-08T04:38:03.287Z,100.5
2019-03-08T04:39:03.358Z,99.6
2019-03-08T04:40:03.959Z,98.7
2019-03-08T04:41:02.721Z,99.1
2019-03-08T04:42:02.803Z,98.7
2019-03-08T04:43:03.202Z,99.8
2019-03-08T04:44:03.870Z,98.4
2019-03-08T04:45:04.097Z,99.8
2019-03-08T04:46:03.966Z,100.8
2019-03-08T04:47:03.630Z,101.2
2019-03-08T04:48:03.637Z,102.2
2019-03-08T04:49:03.443Z,101.2
2019-03-08T04:50:03.549Z,101
2019-03-08T04:51:03.601Z,101
2019-03-08T04:52:03.575Z,101.5
2019-03-08T04:53:04.272Z,100.8
2019-03-08T04:54:03.660Z,102.2
2019-03-08T04:55:03.561Z,101.9
2019-03-08T04:56:03.697Z,101.5
2019-03-08T04:57:03.339Z,102.4
2019-03-08T04:58:03.339Z,102.2
2019-03-08T04:59:03.439Z,102.9
2019-03-08T05:00:03.455Z,100.8
2019-03-08T05:01:03.785Z,101.9
2019-03-08T05:02:03.297Z,101.7
2019-03-08T05:03:03.244Z,103.6
2019-03-08T05:04:03.113Z,103.1
2019-03-08T05:05:03.191Z,102.9
2019-03-08T05:06:03.097Z,102.9
2019-03-08T05:07:03.257Z,103.1
2019-03-08T05:08:02.931Z,101.5
2019-03-08T05:09:03.681Z,101.2
2019-03-08T05:10:03.091Z,101.7
2019-03-08T05:11:03.665Z,101
2019-03-08T05:12:02.985Z,101.7
2019-03-08T05:13:03.662Z,101.9
2019-03-08T05:14:03.694Z,100.8
2019-03-08T05:15:03.673Z,101.7
2019-03-08T05:16:03.900Z,102.4
2019-03-08T05:17:04.597Z,101.5
2019-03-08T05:18:03.402Z,102.2
2019-03-08T05:19:03.720Z,102.6
2019-03-08T05:20:03.623Z,101.5
2019-03-08T05:21:03.197Z,103.1
2019-03-08T05:22:03.725Z,100.5
2019-03-08T05:23:03.658Z,102.6
2019-03-08T05:24:03.155Z,100.3
2019-03-08T05:25:04.212Z,101.5
2019-03-08T05:26:03.491Z,101.7
2019-03-08T05:27:03.739Z,101.2
2019-03-08T05:28:05.233Z,100.3
2019-03-08T05:29:03.507Z,99.4
2019-03-08T05:30:03.640Z,98.4
2019-03-08T05:31:03.196Z,98.4
2019-03-08T05:32:03.334Z,97
2019-03-08T05:33:04.476Z,98.2
2019-03-08T05:34:03.153Z,98.7
2019-03-08T05:35:03.125Z,98.2
2019-03-08T05:36:03.326Z,97.3
2019-03-08T05:37:02.997Z,99.1
2019-03-08T05:38:03.392Z,98.7
2019-03-08T05:39:03.236Z,100.1
2019-03-08T05:40:03.269Z,100.1
2019-03-08T05:41:04.676Z,101.2
2019-03-08T05:42:02.870Z,101.7
2019-03-08T05:43:04.387Z,102.4
2019-03-08T05:44:03.726Z,101.2
2019-03-08T05:45:03.645Z,101.7
2019-03-08T05:46:02.659Z,100.5
2019-03-08T05:47:02.991Z,101.2
2019-03-08T05:48:03.297Z,100.3
2019-03-08T05:49:04.441Z,98.9
2019-03-08T05:50:02.953Z,98.9
2019-03-08T05:51:03.111Z,98.7
2019-03-08T05:52:02.909Z,98.2
2019-03-08T05:53:03.792Z,96.1
2019-03-08T05:54:03.859Z,98.4
2019-03-08T05:55:03.833Z,98.9
2019-03-08T05:56:03.589Z,97.5
2019-03-08T05:57:03.760Z,96.8
2019-03-08T05:58:03.442Z,96.1
2019-03-08T05:59:03.600Z,97.5
2019-03-08T06:00:03.569Z,95.4
2019-03-08T06:01:03.364Z,96.3
2019-03-08T06:02:03.756Z,95.6
2019-03-08T06:03:03.851Z,96.8
2019-03-08T06:04:03.906Z,94.9
2019-03-08T06:05:02.152Z,97.5
2019-03-08T06:06:03.083Z,96.8
2019-03-08T06:07:03.891Z,98
2019-03-08T06:08:03.686Z,97.3
2019-03-08T06:09:03.205Z,97
2019-03-08T06:10:03.481Z,95.6
2019-03-08T06:11:03.441Z,96.1
2019-03-08T06:12:03.743Z,95.9
2019-03-08T06:13:03.022Z,95.4
2019-03-08T06:14:03.258Z,94.5
2019-03-08T06:15:03.146Z,94.9
2019-03-08T06:16:03.227Z,95.4
2019-03-08T06:17:03.032Z,93.1
2019-03-08T06:18:03.145Z,94.7
2019-03-08T06:19:03.063Z,94.5
2019-03-08T06:20:04.411Z,95.6
2019-03-08T06:21:03.070Z,97.5
2019-03-08T06:22:02.871Z,94.7
2019-03-08T06:23:05.061Z,94.7
2019-03-08T06:24:03.805Z,94
2019-03-08T06:25:03.837Z,93.5
2019-03-08T06:26:02.931Z,93.5
2019-03-08T06:27:03.125Z,92.4
2019-03-08T06:28:02.989Z,93.3
2019-03-08T06:29:03.843Z,93.5
2019-03-08T06:30:03.666Z,95.9
2019-03-08T06:31:03.671Z,94.5
2019-03-08T06:32:03.567Z,94.5
2019-03-08T06:33:03.555Z,94.2
2019-03-08T06:34:03.339Z,95.6
2019-03-08T06:35:03.635Z,93.8
2019-03-08T06:36:03.486Z,94
2019-03-08T06:37:03.294Z,96.6
2019-03-08T06:38:03.446Z,94.2
2019-03-08T06:39:03.325Z,95.2
2019-03-08T06:40:03.492Z,94.2
2019-03-08T06:41:03.366Z,92.8
2019-03-08T06:42:03.315Z,93.5
2019-03-08T06:43:03.772Z,94.5
2019-03-08T06:44:02.967Z,94
2019-03-08T06:45:03.181Z,93.5
2019-03-08T06:46:03.316Z,93.8
2019-03-08T06:47:02.979Z,93.8
2019-03-08T06:48:02.999Z,94
2019-03-08T06:49:03.467Z,93.8
2019-03-08T06:50:03.010Z,94.9
2019-03-08T06:51:04.145Z,93.5
2019-03-08T06:52:03.805Z,96.1
2019-03-08T06:53:02.865Z,94.2
2019-03-08T06:54:03.523Z,94.7
2019-03-08T06:55:02.891Z,96.3
2019-03-08T06:56:02.908Z,95.9
2019-03-08T06:57:03.884Z,96.1
2019-03-08T06:58:03.842Z,97.5
2019-03-08T06:59:03.655Z,97.7
2019-03-08T07:00:03.298Z,96.8
2019-03-08T07:01:03.543Z,95.6
2019-03-08T07:02:03.701Z,96.1
2019-03-08T07:03:03.271Z,95.6
2019-03-08T07:04:03.442Z,95.9
2019-03-08T07:05:03.633Z,96.3
2019-03-08T07:06:03.462Z,95.9
2019-03-08T07:07:04.356Z,96.8
2019-03-08T07:08:03.250Z,97.7
2019-03-08T07:09:03.247Z,98.4
2019-03-08T07:10:03.300Z,97.7
2019-03-08T07:11:03.473Z,99.4
2019-03-08T07:12:03.419Z,100.1
2019-03-08T07:13:04.287Z,99.6
2019-03-08T07:14:03.373Z,101.7
2019-03-08T07:15:04.208Z,100.3
2019-03-08T07:16:15.585Z,100.1
2019-03-08T07:17:03.209Z,99.6
2019-03-08T07:18:13.394Z,99.4
2019-03-08T07:19:03.136Z,98.4
2019-03-08T07:20:03.577Z,98.7
2019-03-08T07:21:03.639Z,98.7
2019-03-08T07:22:02.945Z,98.4
2019-03-08T07:23:03.853Z,99.8
2019-03-08T07:24:02.901Z,99.8
2019-03-08T07:25:03.389Z,101.5
2019-03-08T07:26:03.217Z,100.8
2019-03-08T07:27:03.103Z,100.8
2019-03-08T07:28:03.460Z,100.3
2019-03-08T07:29:03.221Z,99.8
2019-03-08T07:30:03.398Z,100.3
2019-03-08T07:31:03.067Z,99.1
2019-03-08T07:32:02.921Z,98.7
2019-03-08T07:33:03.114Z,99.1
2019-03-08T07:34:02.913Z,99.4
2019-03-08T07:35:03.354Z,99.8
2019-03-08T07:36:02.755Z,98
2019-03-08T07:37:02.956Z,98
2019-03-08T07:38:03.752Z,97.3
2019-03-08T07:39:02.851Z,99.1
2019-03-08T07:40:03.988Z,97
2019-03-08T07:41:03.523Z,100.3
2019-03-08T07:42:03.942Z,99.4
2019-03-08T07:43:03.365Z,98.9
2019-03-08T07:44:03.760Z,99.4
2019-03-08T07:45:03.614Z,99.4
2019-03-08T07:46:03.435Z,98.4
2019-03-08T07:47:03.334Z,100.5
2019-03-08T07:48:03.548Z,100.8
2019-03-08T07:49:03.509Z,99.8
2019-03-08T07:50:03.538Z,100.5
2019-03-08T07:51:03.582Z,99.1
2019-03-08T07:52:03.314Z,100.8
2019-03-08T07:53:03.271Z,101.2
2019-03-08T07:54:03.784Z,98.9
2019-03-08T07:55:03.524Z,101
2019-03-08T07:56:03.325Z,100.1
2019-03-08T07:57:03.437Z,101
2019-03-08T07:58:03.276Z,100.8
2019-03-08T07:59:03.513Z,101.5
2019-03-08T08:00:03.200Z,102.6
2019-03-08T08:01:03.453Z,102.2
2019-03-08T08:02:03.250Z,103.8
2019-03-08T08:03:05.849Z,101.7
2019-03-08T08:04:03.133Z,102.4
2019-03-08T08:05:03.638Z,101.9
2019-03-08T08:06:03.000Z,100.8
2019-03-08T08:07:03.295Z,100.3
2019-03-08T08:08:02.768Z,99.4
2019-03-08T08:09:03.071Z,100.5
2019-03-08T08:10:03.046Z,97.7
2019-03-08T08:11:03.792Z,98.4
2019-03-08T08:12:02.973Z,99.6
2019-03-08T08:13:03.821Z,98.2
2019-03-08T08:14:02.924Z,100.5
2019-03-08T08:15:03.056Z,98.2
2019-03-08T08:16:03.768Z,99.4
2019-03-08T08:17:03.507Z,101
2019-03-08T08:18:03.895Z,98.7
2019-03-08T08:19:04.477Z,99.1
2019-03-08T08:20:02.976Z,98.4
2019-03-08T08:21:03.590Z,97
2019-03-08T08:22:03.431Z,98.2
2019-03-08T08:23:03.320Z,98.2
2019-03-08T08:24:03.472Z,97.3
2019-03-08T08:25:03.660Z,98.4
2019-03-08T08:26:03.873Z,96.3
2019-03-08T08:27:04.282Z,97.5
2019-03-08T08:28:03.178Z,96.1
2019-03-08T08:29:03.359Z,96.8
2019-03-08T08:30:03.842Z,97.3
2019-03-08T08:31:03.517Z,98.4
2019-03-08T08:32:03.486Z,98.9
2019-03-08T08:33:03.456Z,99.4
2019-03-08T08:34:03.447Z,100.3
2019-03-08T08:35:03.981Z,101.7
2019-03-08T08:36:03.308Z,101.9
2019-03-08T08:37:02.921Z,103.8
2019-03-08T08:38:03.549Z,102.6
2019-03-08T08:39:03.388Z,104.7
2019-03-08T08:40:03.213Z,103.1
2019-03-08T08:41:03.340Z,104.5
2019-03-08T08:42:03.399Z,104.7
2019-03-08T08:43:04.023Z,103.1
2019-03-08T08:44:03.365Z,104.3
2019-03-08T08:45:03.150Z,103.6
2019-03-08T08:46:03.409Z,103.3
2019-03-08T08:47:03.209Z,104
2019-03-08T08:48:03.142Z,102.9
2019-03-08T08:49:02.968Z,103.1
2019-03-08T08:50:02.976Z,102.4
2019-03-08T08:51:03.925Z,102.4
2019-03-08T08:52:03.274Z,102.2
2019-03-08T08:53:03.187Z,101
2019-03-08T08:54:02.908Z,101
2019-03-08T08:55:03.160Z,99.6
2019-03-08T08:56:03.984Z,98
2019-03-08T08:57:02.888Z,98
2019-03-08T08:58:02.875Z,97.3
2019-03-08T08:59:04.069Z,97.5
2019-03-08T09:00:02.999Z,98.7
2019-03-08T09:01:02.631Z,97.3
2019-03-08T09:02:03.085Z,98
2019-03-08T09:03:03.002Z,99.8
2019-03-08T09:04:03.042Z,97.5
2019-03-08T09:05:03.744Z,100.3
2019-03-08T09:06:02.792Z,99.4
2019-03-08T09:07:04.461Z,101.2
2019-03-08T09:08:02.793Z,100.5
2019-03-08T09:09:03.776Z,101.5
2019-03-08T09:10:03.729Z,101.2
2019-03-08T09:11:03.357Z,101.2
2019-03-08T09:12:03.527Z,101.7
2019-03-08T09:13:03.495Z,101.7
2019-03-08T09:14:03.790Z,102.9
2019-03-08T09:15:04.406Z,103.3
2019-03-08T09:16:03.174Z,103.1
2019-03-08T09:17:03.635Z,103.6
2019-03-08T09:18:03.310Z,104.5
2019-03-08T09:19:03.237Z,104.3
2019-03-08T09:20:03.002Z,105
2019-03-08T09:21:03.676Z,103.6
2019-03-08T09:22:03.226Z,104
2019-03-08T09:23:04.124Z,103.6
2019-03-08T09:24:03.439Z,104.5
2019-03-08T09:25:03.359Z,103.3
2019-03-08T09:26:02.950Z,103.6
2019-03-08T09:27:03.218Z,105.4
2019-03-08T09:28:03.365Z,102.4
2019-03-08T09:29:03.171Z,103.6
2019-03-08T09:30:03.358Z,101
2019-03-08T09:31:03.927Z,103.3
2019-03-08T09:32:03.306Z,101
2019-03-08T09:33:03.676Z,101
2019-03-08T09:34:03.001Z,99.4
2019-03-08T09:35:03.035Z,97.5
2019-03-08T09:36:03.020Z,98.4
2019-03-08T09:37:03.067Z,96.8
2019-03-08T09:38:03.501Z,95.2
2019-03-08T09:39:04.006Z,95.2
2019-03-08T09:40:03.419Z,94.7
2019-03-08T09:41:03.041Z,92.8
2019-03-08T09:42:02.972Z,93.5
2019-03-08T09:43:03.652Z,92.6
2019-03-08T09:44:03.016Z,91
2019-03-08T09:45:03.108Z,91.7
2019-03-08T09:46:03.587Z,89.8
2019-03-08T09:47:04.797Z,92.8
2019-03-08T09:48:03.748Z,92.6
2019-03-08T09:49:02.816Z,93.1
2019-03-08T09:50:03.592Z,93.8
2019-03-08T09:51:03.669Z,94.5
2019-03-08T09:52:03.599Z,95.6
2019-03-08T09:53:03.629Z,96.3
2019-03-08T09:54:03.452Z,95.4
2019-03-08T09:55:04.617Z,96.8
2019-03-08T09:56:02.941Z,97.3
2019-03-08T09:57:03.559Z,95.6
2019-03-08T09:58:03.459Z,96.6
2019-03-08T09:59:03.023Z,96.8
2019-03-08T10:00:03.793Z,96.3
2019-03-08T10:01:03.436Z,96.3
2019-03-08T10:02:03.441Z,95.6
2019-03-08T10:03:04.634Z,95.2
2019-03-08T10:04:03.563Z,93.5
2019-03-08T10:05:03.461Z,92.6
2019-03-08T10:06:03.423Z,92.4
2019-03-08T10:07:03.123Z,92.6
2019-03-08T10:08:03.522Z,92.4
2019-03-08T10:09:02.969Z,91.4
2019-03-08T10:10:03.551Z,91.4
2019-03-08T10:11:04.174Z,91
2019-03-08T10:12:03.174Z,89.6
2019-03-08T10:13:03.107Z,89.3
2019-03-08T10:14:03.014Z,88.9
2019-03-08T10:15:03.303Z,88.6
2019-03-08T10:16:03.124Z,87.5
2019-03-08T10:17:03.282Z,86.3
2019-03-08T10:18:03.654Z,87.9
2019-03-08T10:19:03.993Z,88.6
2019-03-08T10:20:02.973Z,88.4
2019-03-08T10:21:03.626Z,87.7
2019-03-08T10:22:03.800Z,88.4
2019-03-08T10:23:02.739Z,89.1
2019-03-08T10:24:03.925Z,89.1
2019-03-08T10:25:03.766Z,89.6
2019-03-08T10:26:03.748Z,88.4
2019-03-08T10:27:03.879Z,90
2019-03-08T10:28:03.726Z,89.8
2019-03-08T10:29:04.009Z,88.6
2019-03-08T10:30:03.008Z,89.6
2019-03-08T10:31:03.747Z,90
2019-03-08T10:32:03.873Z,90.5
2019-03-08T10:33:03.506Z,91.7
2019-03-08T10:34:03.001Z,92.4
2019-03-08T10:35:04.712Z,91.9
2019-03-08T10:36:03.631Z,93.8
2019-03-08T10:37:03.609Z,91.7
2019-03-08T10:38:03.623Z,96.1
2019-03-08T10:39:03.757Z,94
2019-03-08T10:40:05.959Z,97
2019-03-08T10:41:03.579Z,95.9
2019-03-08T10:42:03.356Z,96.1
2019-03-08T10:43:04.608Z,98.2
2019-03-08T10:44:15.648Z,97
2019-03-08T10:45:03.433Z,99.4
2019-03-08T10:46:03.344Z,99.1
2019-03-08T10:47:03.524Z,98.7
2019-03-08T10:48:03.286Z,98
2019-03-08T10:49:03.979Z,96.6
2019-03-08T10:50:03.540Z,94.7
2019-03-08T10:51:04.262Z,96.1
2019-03-08T10:52:03.254Z,97.3
2019-03-08T10:53:03.545Z,97.7
2019-03-08T10:54:03.644Z,96.8
2019-03-08T10:55:03.439Z,97.3
2019-03-08T10:56:03.308Z,99.6
2019-03-08T10:57:03.419Z,97.7
2019-03-08T10:58:03.507Z,98.9
2019-03-08T10:59:04.121Z,98
2019-03-08T11:00:03.580Z,97.7
2019-03-08T11:01:03.454Z,98
2019-03-08T11:02:03.054Z,98.2
2019-03-08T11:03:03.175Z,99.1
2019-03-08T11:04:02.937Z,100.5
2019-03-08T11:05:03.513Z,98.9
2019-03-08T11:06:03.415Z,99.6
2019-03-08T11:07:04.840Z,98.4
2019-03-08T11:08:03.736Z,98.4
2019-03-08T11:09:03.057Z,97.7
2019-03-08T11:10:03.057Z,98
2019-03-08T11:11:06.996Z,98.2
2019-03-08T11:12:03.737Z,97
2019-03-08T11:13:02.876Z,98.7
2019-03-08T11:14:03.019Z,97.3
2019-03-08T11:15:04.398Z,97.3
2019-03-08T11:16:03.908Z,98
2019-03-08T11:17:03.076Z,95.9
2019-03-08T11:18:03.760Z,97
2019-03-08T11:19:09.349Z,96.3
2019-03-08T11:20:03.664Z,95.4
2019-03-08T11:21:03.492Z,95.9
2019-03-08T11:22:03.584Z,94
2019-03-08T11:23:04.211Z,94.7
2019-03-08T11:24:03.509Z,94.7
2019-03-08T11:25:09.013Z,94.9
2019-03-08T11:26:03.659Z,95.4
2019-03-08T11:27:05.642Z,95.9
2019-03-08T11:28:03.765Z,96.8
2019-03-08T11:29:03.416Z,98
2019-03-08T11:30:03.227Z,97.5
2019-03-08T11:31:04.384Z,98
2019-03-08T11:32:03.401Z,98
2019-03-08T11:33:03.428Z,97.7
2019-03-08T11:34:03.274Z,97.3
2019-03-08T11:35:03.283Z,98.4
2019-03-08T11:36:03.333Z,99.8
2019-03-08T11:37:04.552Z,96.8
2019-03-08T11:38:03.253Z,100.1
2019-03-08T11:39:04.166Z,97.5
2019-03-08T11:40:03.279Z,97.7
2019-03-08T11:41:03.230Z,98.4
2019-03-08T11:42:03.124Z,97.3
2019-03-08T11:43:02.948Z,98.2
2019-03-08T11:44:03.154Z,97.5
2019-03-08T11:45:03.289Z,98
2019-03-08T11:46:02.909Z,98.7
2019-03-08T11:47:04.397Z,98.9
2019-03-08T11:48:02.810Z,98.9
2019-03-08T11:49:03.067Z,99.4
2019-03-08T11:50:03.544Z,99.4
2019-03-08T11:51:03.641Z,98.4
2019-03-08T11:52:03.751Z,99.8
2019-03-08T11:53:03.544Z,98.7
2019-03-08T11:54:03.683Z,96.8
2019-03-08T11:55:03.843Z,97.7
2019-03-08T11:56:03.082Z,96.3
2019-03-08T11:57:02.957Z,95.9
2019-03-08T11:58:03.687Z,95.9
2019-03-08T11:59:02.727Z,94.9
2019-03-08T12:00:03.712Z,94.7
2019-03-08T12:01:02.874Z,94.2
2019-03-08T12:02:05.945Z,93.5
2019-03-08T12:03:03.058Z,93.5
2019-03-08T12:04:03.626Z,94.5
2019-03-08T12:05:02.760Z,93.5
2019-03-08T12:06:03.560Z,93.3
2019-03-08T12:07:03.722Z,94.7
2019-03-08T12:08:03.619Z,93.5
2019-03-08T12:09:03.524Z,97.3
2019-03-08T12:10:03.761Z,96.3
2019-03-08T12:11:03.723Z,98.4
2019-03-08T12:12:03.918Z,98
2019-03-08T12:13:03.725Z,100.1
2019-03-08T12:14:03.836Z,99.1
2019-03-08T12:15:03.514Z,99.8
2019-03-08T12:16:03.705Z,102.2
2019-03-08T12:17:03.413Z,98.7
2019-03-08T12:18:03.446Z,101
2019-03-08T12:19:03.595Z,101
2019-03-08T12:20:03.620Z,99.8
2019-03-08T12:21:03.244Z,101.2
2019-03-08T12:22:03.392Z,101.5
2019-03-08T12:23:03.314Z,103.6
2019-03-08T12:24:03.439Z,104
2019-03-08T12:25:03.272Z,102.9
2019-03-08T12:26:03.181Z,103.3
2019-03-08T12:27:04.969Z,101.7
2019-03-08T12:28:03.983Z,101.7
2019-03-08T12:29:03.937Z,101.7
2019-03-08T12:30:04.979Z,101.5
2019-03-08T12:31:03.244Z,102.4
2019-03-08T12:32:02.947Z,102.6
2019-03-08T12:33:02.803Z,101.7
2019-03-08T12:34:03.859Z,100.8
2019-03-08T12:35:03.035Z,100.8
2019-03-08T12:36:05.467Z,99.8
2019-03-08T12:37:02.962Z,97.5
2019-03-08T12:38:03.320Z,98.2
2019-03-08T12:39:02.956Z,98.7
2019-03-08T12:40:03.101Z,96.8
2019-03-08T12:41:03.905Z,99.4
2019-03-08T12:42:02.941Z,98.2
2019-03-08T12:43:08.691Z,99.1
2019-03-08T12:44:04.557Z,99.8
2019-03-08T12:45:03.787Z,97
2019-03-08T12:46:03.692Z,97.3
2019-03-08T12:47:03.614Z,96.8
2019-03-08T12:48:03.735Z,95.9
2019-03-08T12:49:03.703Z,96.3
2019-03-08T12:50:03.793Z,97
2019-03-08T12:51:03.888Z,96.6
2019-03-08T12:52:04.331Z,97
2019-03-08T12:53:03.485Z,98
2019-03-08T12:54:03.423Z,96.3
2019-03-08T12:55:03.550Z,99.1
2019-03-08T12:56:03.364Z,98
2019-03-08T12:57:03.505Z,99.6
2019-03-08T12:58:03.433Z,100.1
2019-03-08T12:59:03.521Z,99.6
2019-03-08T13:00:03.864Z,102.2
2019-03-08T13:01:03.496Z,101.9
2019-03-08T13:02:03.633Z,103.3
2019-03-08T13:03:03.738Z,103.1
2019-03-08T13:04:03.218Z,103.8
2019-03-08T13:05:03.467Z,103.3
2019-03-08T13:06:03.252Z,103.1
2019-03-08T13:07:03.328Z,102.9
2019-03-08T13:08:03.503Z,102.6
2019-03-08T13:09:03.708Z,102.4
2019-03-08T13:10:03.591Z,102.9
2019-03-08T13:11:03.443Z,100.1
2019-03-08T13:12:03.368Z,101.2
2019-03-08T13:13:03.213Z,98
2019-03-08T13:14:03.212Z,99.4
2019-03-08T13:15:03.222Z,97.5
2019-03-08T13:16:03.179Z,100.3